Time;durP1;ratioP1;P1;durP2;ratioP2;P2;SDS_P1;SDS_P2;PMS_P1;PMS_P2;Temp;Humidity;BMP_temperature;BMP_pressure;BME280_temperature;BME280_humidity;BME280_pressure;Samples;Min_cycle;Max_cycle;Signal;HPM_P1;HPM_P2
2021/03/13 00:00:18;;;;;;;0.20;0.20;;;;;;;5.82;67.85;96031.03;4898329;29;20143;-81
2021/03/13 00:02:59;;;;;;;0.20;0.20;;;;;;;5.80;68.12;96017.44;4898633;29;20116;-80
2021/03/13 00:05:54;;;;;;;0.60;0.13;;;;;;;5.76;68.21;96007.41;4901930;29;20508;-80
2021/03/13 00:08:40;;;;;;;0.30;0.20;;;;;;;5.77;68.37;96019.41;4902461;29;20088;-80
2021/03/13 00:11:13;;;;;;;1.10;0.30;;;;;;;5.78;68.42;96021.00;4902025;29;20071;-80
2021/03/13 00:13:44;;;;;;;0.57;0.30;;;;;;;5.77;68.44;96024.56;4886663;29;20060;-80
2021/03/13 00:16:16;;;;;;;0.85;0.40;;;;;;;5.76;68.50;96014.38;4903147;29;20071;-80
2021/03/13 00:18:50;;;;;;;1.38;0.20;;;;;;;5.75;68.50;96015.34;4902217;29;20059;-80
2021/03/13 00:21:19;;;;;;;1.10;0.30;;;;;;;5.73;68.32;96014.72;4902122;29;20044;-80
2021/03/13 00:23:55;;;;;;;1.15;0.30;;;;;;;5.72;68.63;96011.31;4902221;29;20081;-81
2021/03/13 00:26:23;;;;;;;0.45;0.30;;;;;;;5.70;68.47;96009.84;4901726;29;20052;-81
2021/03/13 00:28:55;;;;;;;0.35;0.20;;;;;;;5.71;68.77;96006.31;4901639;29;20056;-81
2021/03/13 00:31:22;;;;;;;0.55;0.43;;;;;;;5.70;68.78;96002.91;4901724;29;20401;-81
2021/03/13 00:33:51;;;;;;;0.73;0.73;;;;;;;5.69;68.47;96006.47;4901288;29;20052;-81
2021/03/13 00:36:19;;;;;;;0.32;0.30;;;;;;;5.69;68.28;96010.84;4901577;29;20143;-81
2021/03/13 00:38:48;;;;;;;0.20;0.20;;;;;;;5.70;68.64;96007.28;4901636;29;20416;-81
2021/03/13 00:41:18;;;;;;;0.40;0.30;;;;;;;5.73;68.85;96012.13;4901841;29;20056;-81
2021/03/13 00:43:46;;;;;;;0.28;0.28;;;;;;;5.69;68.62;96016.81;4901932;29;20056;-81
2021/03/13 00:46:15;;;;;;;0.30;0.30;;;;;;;5.66;68.37;96011.16;4901672;29;20084;-81
2021/03/13 00:48:43;;;;;;;0.73;0.60;;;;;;;5.66;68.70;96009.38;4901831;29;20057;-81
2021/03/13 00:51:11;;;;;;;0.40;0.40;;;;;;;5.70;68.70;96008.06;4901307;29;20091;-81
2021/03/13 00:53:42;;;;;;;0.50;0.47;;;;;;;5.74;68.88;96011.94;4885217;29;20079;-81
2021/03/13 00:56:19;;;;;;;0.40;0.40;;;;;;;5.77;68.85;96008.22;4901722;29;20112;-81
2021/03/13 00:58:55;;;;;;;0.65;0.38;;;;;;;5.83;69.07;96001.56;4900911;29;20052;-81
2021/03/13 01:01:36;;;;;;;1.17;0.50;;;;;;;5.86;68.95;95996.06;4901165;29;20064;-81
2021/03/13 01:04:18;;;;;;;1.00;0.50;;;;;;;5.87;68.42;95992.50;4899536;29;20428;-80
2021/03/13 01:06:48;;;;;;;1.30;0.50;;;;;;;5.88;68.56;95983.75;4901408;29;20044;-80
2021/03/13 01:09:20;;;;;;;0.52;0.32;;;;;;;5.89;68.68;95975.81;4901210;29;20048;-80
2021/03/13 01:11:59;;;;;;;0.40;0.40;;;;;;;5.89;68.75;95977.63;4900804;29;20052;-80
2021/03/13 01:14:35;;;;;;;1.25;0.65;;;;;;;5.90;69.50;95961.94;4901238;29;20048;-80
2021/03/13 01:17:07;;;;;;;0.60;0.60;;;;;;;5.92;69.06;95964.31;4900415;29;20048;-80
2021/03/13 01:25:58;;;;;;;0.30;0.30;;;;;;;6.01;68.47;95963.34;4862491;29;20059;-81
2021/03/13 01:28:31;;;;;;;0.57;0.50;;;;;;;6.04;68.86;95960.44;4896321;29;20499;-81
2021/03/13 01:31:05;;;;;;;1.15;0.60;;;;;;;6.04;68.95;95949.28;4901015;29;20056;-81
2021/03/13 01:33:38;;;;;;;0.40;0.40;;;;;;;6.02;68.77;95944.25;4901519;29;20053;-81
2021/03/13 01:36:07;;;;;;;0.47;0.38;;;;;;;6.01;69.04;95936.66;4900454;29;20521;-81
2021/03/13 01:38:43;;;;;;;0.82;0.40;;;;;;;6.01;68.84;95919.34;4900619;29;20078;-80
2021/03/13 01:41:30;;;;;;;1.00;0.50;;;;;;;6.00;69.10;95930.69;4900781;29;20075;-80
2021/03/13 01:44:16;;;;;;;0.63;0.47;;;;;;;6.00;69.36;95925.50;4900579;29;20188;-80
2021/03/13 01:46:46;;;;;;;1.25;0.85;;;;;;;5.98;69.30;95922.28;4884081;29;20512;-80
2021/03/13 01:49:31;;;;;;;0.77;0.40;;;;;;;5.98;70.35;95917.09;4900228;29;20053;-80
2021/03/13 01:52:02;;;;;;;1.25;0.38;;;;;;;5.98;69.64;95917.09;4900704;29;20052;-80
2021/03/13 01:54:33;;;;;;;0.90;0.40;;;;;;;5.99;69.37;95910.94;4900418;29;20052;-80
2021/03/13 01:57:06;;;;;;;1.07;0.57;;;;;;;5.98;69.79;95897.19;4883849;29;20060;-80
2021/03/13 01:59:40;;;;;;;1.65;0.65;;;;;;;6.00;69.52;95899.59;4900671;29;20052;-81
2021/03/13 02:02:16;;;;;;;2.08;0.50;;;;;;;6.03;70.10;95901.84;4900258;29;20057;-80
2021/03/13 02:04:49;;;;;;;1.45;0.40;;;;;;;6.06;69.67;95906.69;4899895;29;20060;-81
2021/03/13 02:07:25;;;;;;;1.13;0.40;;;;;;;6.09;70.19;95897.78;4899880;29;20049;-81
2021/03/13 02:10:05;;;;;;;2.38;0.68;;;;;;;6.11;70.28;95895.84;4900174;29;20076;-81
2021/03/13 02:12:58;;;;;;;1.63;0.40;;;;;;;6.11;70.73;95886.28;4899950;29;20056;-81
2021/03/13 02:18:34;;;;;;;1.15;0.50;;;;;;;6.17;70.84;95882.19;4898997;29;20104;-81
2021/03/13 02:24:33;;;;;;;1.50;0.50;;;;;;;6.21;69.88;95874.88;4899805;29;20058;-80
2021/03/13 02:27:14;;;;;;;0.80;0.50;;;;;;;6.18;70.15;95863.09;4899458;29;20167;-80
2021/03/13 02:29:52;;;;;;;2.67;0.70;;;;;;;6.19;70.07;95867.31;4899816;29;20448;-80
2021/03/13 02:32:31;;;;;;;1.05;0.47;;;;;;;6.19;69.97;95862.13;4899827;29;20428;-80
2021/03/13 02:35:16;;;;;;;1.55;0.40;;;;;;;6.19;69.97;95865.50;4899859;29;20052;-80
2021/03/13 02:38:03;;;;;;;2.55;0.47;;;;;;;6.23;70.02;95858.22;4899564;29;20086;-80
2021/03/13 02:40:38;;;;;;;4.97;1.00;;;;;;;6.24;69.42;95846.06;4899683;29;20136;-80
2021/03/13 02:43:10;;;;;;;1.65;0.60;;;;;;;6.23;69.56;95847.84;4883103;29;20143;-80
2021/03/13 02:45:43;;;;;;;1.05;0.50;;;;;;;6.24;69.27;95846.06;4899378;29;20052;-80
2021/03/13 02:48:19;;;;;;;1.70;0.30;;;;;;;6.25;68.82;95843.28;4899202;29;20488;-80
2021/03/13 02:53:39;;;;;;;3.58;0.68;;;;;;;6.26;68.40;95829.38;4905012;29;20052;-81
2021/03/13 02:56:20;;;;;;;;;;;;;;;6.28;68.26;95824.81;4917711;29;20063;-81
2021/03/13 02:58:53;;;;;;;1.65;0.50;;;;;;;6.26;68.38;95820.81;4898449;29;19923;-81
2021/03/13 03:01:27;;;;;;;;;;;;;;;6.27;68.11;95822.41;4900791;29;20060;-81
2021/03/13 03:04:00;;;;;;;1.50;0.45;;;;;;;6.24;67.82;95828.72;4900370;29;19930;-81
2021/03/13 03:06:36;;;;;;;3.40;1.02;;;;;;;6.22;68.07;95820.34;4899522;29;20056;-81
2021/03/13 03:09:08;;;;;;;2.83;0.98;;;;;;;6.19;68.18;95815.50;4899003;29;20104;-80
2021/03/13 03:11:53;;;;;;;2.80;1.50;;;;;;;6.16;68.81;95813.25;4897256;29;20053;-80
2021/03/13 03:14:23;;;;;;;3.35;1.52;;;;;;;6.07;69.41;95802.16;4899164;29;20060;-80
2021/03/13 03:16:58;;;;;;;2.80;1.23;;;;;;;6.06;69.35;95799.75;4899478;29;20142;-81
2021/03/13 03:19:29;;;;;;;3.88;1.75;;;;;;;6.03;68.68;95795.69;4882023;29;20062;-81
2021/03/13 03:22:00;;;;;;;2.17;1.10;;;;;;;6.01;68.85;95796.84;4898911;29;20048;-81
2021/03/13 03:24:40;;;;;;;1.60;1.02;;;;;;;6.03;68.87;95784.53;4898735;29;20523;-81
2021/03/13 03:27:12;;;;;;;3.15;1.17;;;;;;;6.03;68.90;95785.34;4898936;29;20052;-81
2021/03/13 03:29:39;;;;;;;2.97;0.75;;;;;;;6.04;69.00;95786.97;4898482;29;20052;-79
2021/03/13 03:32:22;;;;;;;2.13;0.85;;;;;;;6.06;68.30;95785.00;4893438;29;20048;-78
2021/03/13 03:34:49;;;;;;;1.90;0.65;;;;;;;6.08;68.45;95775.28;4897453;29;20049;-78
2021/03/13 03:37:15;;;;;;;1.70;0.50;;;;;;;6.10;67.89;95778.50;4897735;29;20067;-78
2021/03/13 03:39:42;;;;;;;2.08;0.90;;;;;;;6.11;68.00;95782.69;4896729;29;20059;-77
2021/03/13 03:42:10;;;;;;;2.42;1.17;;;;;;;6.12;68.64;95771.38;4897152;29;20048;-78
2021/03/13 03:44:41;;;;;;;4.38;1.08;;;;;;;6.10;68.30;95770.75;4897050;29;20052;-78
2021/03/13 03:47:10;;;;;;;2.08;0.88;;;;;;;6.09;68.10;95766.53;4897220;29;20056;-78
2021/03/13 03:49:40;;;;;;;3.92;0.82;;;;;;;6.10;68.27;95765.56;4896875;29;20131;-78
2021/03/13 03:52:11;;;;;;;2.67;0.98;;;;;;;6.12;67.90;95750.66;4897403;29;20416;-79
2021/03/13 03:54:39;;;;;;;3.80;0.90;;;;;;;6.12;67.50;95745.50;4907514;29;20488;-77
2021/03/13 03:57:08;;;;;;;1.63;0.55;;;;;;;6.13;68.08;95754.84;4914352;23;20060;-80
2021/03/13 03:59:36;;;;;;;2.25;0.73;;;;;;;6.16;67.98;95743.34;4884167;29;20144;-82
2021/03/13 04:02:04;;;;;;;3.55;1.13;;;;;;;6.17;67.53;95742.38;4884224;29;20057;-79
2021/03/13 04:04:32;;;;;;;3.03;1.30;;;;;;;6.16;67.13;95738.16;4885089;29;20073;-80
2021/03/13 04:07:01;;;;;;;1.35;1.00;;;;;;;6.14;67.34;95740.94;4884518;29;20056;-77
2021/03/13 04:09:28;;;;;;;1.83;0.70;;;;;;;6.14;67.04;95746.13;4884093;29;20056;-82
2021/03/13 04:11:57;;;;;;;2.35;1.00;;;;;;;6.13;66.93;95741.91;4883939;29;20413;-79
2021/03/13 04:14:25;;;;;;;4.07;1.30;;;;;;;6.10;66.94;95744.84;4883883;29;20139;-77
2021/03/13 04:16:52;;;;;;;2.97;1.02;;;;;;;6.10;67.32;95739.69;4883806;29;20462;-78
2021/03/13 04:19:19;;;;;;;2.90;1.10;;;;;;;6.13;66.96;95752.25;4884225;29;20532;-79
2021/03/13 04:21:47;;;;;;;1.85;0.90;;;;;;;6.13;67.07;95739.31;4884811;29;20075;-78
2021/03/13 04:24:15;;;;;;;3.38;0.75;;;;;;;6.13;66.81;95741.91;4884033;29;20061;-78
2021/03/13 04:26:43;;;;;;;2.55;0.68;;;;;;;6.13;66.78;95733.34;4883946;29;20059;-78
2021/03/13 04:29:10;;;;;;;3.38;1.10;;;;;;;6.13;66.29;95728.97;4883247;29;20448;-74
2021/03/13 04:31:37;;;;;;;3.97;0.70;;;;;;;6.15;66.27;95732.19;4883814;29;20053;-77
2021/03/13 04:34:05;;;;;;;3.28;0.70;;;;;;;6.16;66.45;95731.19;4882954;29;20081;-79
2021/03/13 04:36:33;;;;;;;2.20;0.52;;;;;;;6.17;66.39;95727.63;4882773;29;20513;-78
2021/03/13 04:39:04;;;;;;;2.63;0.73;;;;;;;6.17;66.46;95725.03;4882348;29;20057;-76
2021/03/13 04:41:33;;;;;;;2.65;0.50;;;;;;;6.18;66.09;95718.88;4882444;29;20057;-77
2021/03/13 04:44:00;;;;;;;1.90;0.40;;;;;;;6.18;65.74;95718.88;4882421;29;20497;-77
2021/03/13 04:46:27;;;;;;;3.60;0.50;;;;;;;6.18;66.34;95713.69;4883658;29;20048;-76
2021/03/13 04:48:55;;;;;;;3.25;0.55;;;;;;;6.22;66.31;95710.75;4883295;29;20056;-77
2021/03/13 04:51:22;;;;;;;1.55;0.50;;;;;;;6.21;66.07;95715.16;4885547;29;20056;-76
2021/03/13 04:53:48;;;;;;;2.20;0.50;;;;;;;6.20;65.91;95716.13;4885653;29;20053;-80
2021/03/13 04:56:15;;;;;;;3.20;1.00;;;;;;;6.22;65.96;95718.53;4885231;29;20439;-77
2021/03/13 04:58:42;;;;;;;3.80;0.70;;;;;;;6.19;65.62;95712.72;4884973;29;20053;-78
2021/03/13 05:01:09;;;;;;;1.35;0.68;;;;;;;6.19;66.05;95717.09;4868669;29;20053;-76
2021/03/13 05:03:40;;;;;;;3.75;0.63;;;;;;;6.19;65.79;95715.31;4867333;29;20113;-76
2021/03/13 05:06:07;;;;;;;3.45;1.00;;;;;;;6.22;65.88;95713.34;4867758;29;20136;-76
2021/03/13 05:08:34;;;;;;;1.77;0.40;;;;;;;6.21;65.62;95714.31;4866364;29;20057;-77
2021/03/13 05:11:01;;;;;;;1.75;0.40;;;;;;;6.17;66.00;95716.47;4866886;29;20049;-76
2021/03/13 05:13:28;;;;;;;1.10;0.47;;;;;;;6.15;66.20;95716.63;4866617;29;20110;-76
2021/03/13 05:15:55;;;;;;;3.50;1.23;;;;;;;6.14;65.91;95720.22;4866109;29;20061;-76
2021/03/13 05:18:21;;;;;;;1.38;0.50;;;;;;;6.12;65.84;95711.00;4866111;29;20420;-76
2021/03/13 05:20:48;;;;;;;2.40;0.70;;;;;;;6.11;66.25;95722.34;4865992;29;20061;-77
2021/03/13 05:23:15;;;;;;;2.10;0.70;;;;;;;6.15;66.42;95718.44;4866571;29;20170;-78
2021/03/13 05:25:43;;;;;;;1.42;0.60;;;;;;;6.17;65.92;95721.66;4865698;29;20145;-77
2021/03/13 05:28:09;;;;;;;1.55;0.70;;;;;;;6.17;65.89;95725.03;4865758;29;20061;-77
2021/03/13 05:30:36;;;;;;;1.30;0.50;;;;;;;6.15;66.06;95721.81;4866119;29;20061;-78
2021/03/13 05:33:03;;;;;;;1.35;0.40;;;;;;;6.16;66.36;95710.47;4865896;29;20072;-78
2021/03/13 05:35:30;;;;;;;0.63;0.40;;;;;;;6.19;66.41;95704.97;4865854;29;20402;-77
2021/03/13 05:37:57;;;;;;;2.58;0.75;;;;;;;6.22;66.31;95701.19;4865579;29;20053;-79
2021/03/13 05:40:24;;;;;;;1.63;0.68;;;;;;;6.26;66.40;95693.91;4864626;29;20064;-85
2021/03/13 05:42:51;;;;;;;3.30;0.60;;;;;;;6.27;66.05;95695.50;4866921;29;20425;-78
2021/03/13 05:45:18;;;;;;;1.58;0.60;;;;;;;6.29;66.32;95685.75;4868088;29;20046;-80
2021/03/13 05:47:45;;;;;;;3.20;0.50;;;;;;;6.29;66.25;95676.19;4867115;29;20540;-81
2021/03/13 05:50:15;;;;;;;0.80;0.63;;;;;;;6.29;66.27;95670.22;4868513;29;20049;-83
2021/03/13 05:52:47;;;;;;;2.70;0.70;;;;;;;6.31;66.47;95669.06;4867797;29;20050;-81
2021/03/13 05:55:17;;;;;;;1.50;0.57;;;;;;;6.30;65.97;95664.06;4868212;29;20059;-78
2021/03/13 05:57:44;;;;;;;4.15;0.57;;;;;;;6.31;66.08;95660.50;4868432;29;20489;-79
2021/03/13 06:00:11;;;;;;;4.32;0.80;;;;;;;6.31;66.00;95658.69;4868315;29;20053;-78
2021/03/13 06:02:38;;;;;;;1.58;0.80;;;;;;;6.32;65.74;95664.69;4867139;29;20046;-80
2021/03/13 06:05:07;;;;;;;3.55;0.70;;;;;;;6.33;65.84;95661.91;4867810;29;20109;-81
2021/03/13 06:07:34;;;;;;;1.92;1.10;;;;;;;6.33;65.68;95655.94;4868149;29;20420;-78
2021/03/13 06:10:01;;;;;;;2.28;0.90;;;;;;;6.33;65.94;95656.72;4867227;29;20054;-78
2021/03/13 06:12:28;;;;;;;0.50;0.50;;;;;;;6.36;65.72;95661.56;4867345;29;20055;-78
2021/03/13 06:14:56;;;;;;;3.20;0.80;;;;;;;6.35;65.54;95659.94;4867972;29;20053;-79
2021/03/13 06:17:25;;;;;;;1.40;0.47;;;;;;;6.36;65.44;95666.75;4867588;29;20061;-82
2021/03/13 06:19:53;;;;;;;0.60;0.45;;;;;;;6.35;65.69;95669.50;4867478;29;20065;-79
2021/03/13 06:22:40;;;;;;;2.92;0.75;;;;;;;6.36;65.70;95666.75;4868934;29;20045;-78
2021/03/13 06:25:21;;;;;;;2.25;0.60;;;;;;;6.34;65.35;95663.53;4868579;29;20465;-78
2021/03/13 06:27:51;;;;;;;1.63;0.60;;;;;;;6.35;65.21;95656.56;4867986;29;20105;-79
2021/03/13 06:30:19;;;;;;;0.95;0.43;;;;;;;6.34;65.27;95653.19;4866859;29;20058;-79
2021/03/13 06:32:45;;;;;;;1.15;0.40;;;;;;;6.36;65.44;95651.22;4867468;29;20064;-82
2021/03/13 06:35:19;;;;;;;1.35;0.47;;;;;;;6.38;64.64;95658.78;4867484;29;20520;-80
2021/03/13 06:37:47;;;;;;;1.23;0.43;;;;;;;6.38;64.85;95646.66;4867631;29;20053;-78
2021/03/13 06:40:32;;;;;;;1.52;0.50;;;;;;;6.43;64.95;95647.88;4867820;29;20057;-83
2021/03/13 06:43:00;;;;;;;1.67;0.60;;;;;;;6.44;64.85;95637.34;4867416;29;20057;-80
2021/03/13 06:45:28;;;;;;;0.50;0.45;;;;;;;6.46;64.59;95627.63;4867272;29;20117;-78
2021/03/13 06:47:56;;;;;;;1.45;0.30;;;;;;;6.48;64.11;95623.06;4866924;29;20053;-79
2021/03/13 06:50:26;;;;;;;1.15;0.20;;;;;;;6.51;64.21;95619.31;4865604;29;20049;-83
2021/03/13 06:53:07;;;;;;;2.00;0.30;;;;;;;6.53;63.53;95615.53;4866781;29;20060;-82
2021/03/13 06:55:35;;;;;;;1.42;0.45;;;;;;;6.58;64.45;95623.59;4871864;29;20108;-89
2021/03/13 06:58:06;;;;;;;0.90;0.30;;;;;;;6.62;63.58;95626.63;4867465;29;20132;-79
2021/03/13 07:00:34;;;;;;;0.68;0.50;;;;;;;6.66;63.43;95624.47;4886619;29;20080;-80
2021/03/13 07:03:09;;;;;;;1.30;0.35;;;;;;;6.70;62.92;95615.34;4887269;29;20523;-84
2021/03/13 07:05:37;;;;;;;2.15;0.30;;;;;;;6.73;62.86;95622.75;4887298;29;20323;-85
2021/03/13 07:08:24;;;;;;;0.82;0.32;;;;;;;6.76;62.95;95620.63;4887557;29;20057;-87
2021/03/13 07:10:51;;;;;;;3.38;0.50;;;;;;;6.81;62.85;95638.22;4888517;29;20085;-84
2021/03/13 07:13:31;;;;;;;1.48;0.40;;;;;;;6.84;62.53;95617.09;4888222;29;20056;-81
2021/03/13 07:16:24;;;;;;;2.17;0.70;;;;;;;6.87;62.59;95615.97;4888114;29;20049;-91
2021/03/13 07:18:52;;;;;;;1.23;0.40;;;;;;;6.86;62.33;95603.97;4889941;29;20057;-81
2021/03/13 07:21:21;;;;;;;1.30;0.40;;;;;;;6.85;62.73;95603.16;4889295;29;20450;-83
2021/03/13 07:23:56;;;;;;;1.10;0.40;;;;;;;6.87;62.56;95606.38;4887750;29;20057;-81
2021/03/13 07:26:28;;;;;;;2.80;0.80;;;;;;;6.92;62.77;95614.41;4892399;29;20064;-85
2021/03/13 07:29:01;;;;;;;1.13;0.47;;;;;;;6.95;62.37;95598.50;4888058;29;20053;-83
2021/03/13 07:31:33;;;;;;;1.08;0.30;;;;;;;6.99;61.85;95594.53;4892134;29;20206;-80
2021/03/13 07:34:05;;;;;;;0.43;0.22;;;;;;;7.01;61.46;95589.97;4888504;29;20052;-80
2021/03/13 07:36:36;;;;;;;0.63;0.30;;;;;;;7.06;61.60;95604.97;4888690;29;20085;-83
2021/03/13 07:39:11;;;;;;;3.78;0.40;;;;;;;7.11;61.35;95600.06;4889470;29;20109;-84
2021/03/13 07:41:40;;;;;;;1.55;0.40;;;;;;;7.18;61.50;95600.13;4891537;29;20121;-82
2021/03/13 07:44:07;;;;;;;0.68;0.20;;;;;;;7.23;61.21;95589.97;4888328;29;20065;-82
2021/03/13 07:46:35;;;;;;;1.10;0.30;;;;;;;7.28;61.50;95582.47;4888517;29;20051;-82
2021/03/13 07:49:02;;;;;;;3.22;0.60;;;;;;;7.31;61.26;95581.28;4889573;29;20087;-81
2021/03/13 07:51:29;;;;;;;1.23;0.60;;;;;;;7.31;60.81;95582.09;4889275;29;20061;-83
2021/03/13 07:53:56;;;;;;;3.05;0.40;;;;;;;7.36;60.76;95578.94;4889021;29;20056;-84
2021/03/13 07:56:25;;;;;;;2.53;0.40;;;;;;;7.42;60.98;95585.97;4889853;29;20053;-80
2021/03/13 07:58:52;;;;;;;1.60;0.40;;;;;;;7.49;61.07;95570.44;4890965;29;20493;-83
2021/03/13 08:01:49;;;;;;;1.67;0.30;;;;;;;7.54;59.32;95566.31;4890496;29;20056;-81
2021/03/13 08:04:55;;;;;;;1.02;0.60;;;;;;;7.62;59.42;95558.38;4889191;29;20080;-79
2021/03/13 08:07:22;;;;;;;4.13;0.55;;;;;;;7.70;59.53;95552.25;4888938;29;20055;-86
2021/03/13 08:09:49;;;;;;;2.33;0.20;;;;;;;7.78;58.81;95559.06;4889814;29;20061;-83
2021/03/13 08:12:39;;;;;;;2.28;0.45;;;;;;;7.82;58.42;95553.31;4891015;29;20077;-85
2021/03/13 08:15:11;;;;;;;1.20;0.30;;;;;;;7.88;57.25;95550.97;4890437;29;20059;-85
2021/03/13 08:17:39;;;;;;;3.03;0.63;;;;;;;7.97;57.12;95544.63;4888299;29;20084;-85
2021/03/13 08:20:09;;;;;;;0.75;0.30;;;;;;;8.03;56.73;95538.66;4890054;29;20432;-88
2021/03/13 08:22:35;;;;;;;2.10;0.28;;;;;;;8.10;56.83;95536.91;4890589;29;20061;-84
2021/03/13 08:25:03;;;;;;;1.77;0.30;;;;;;;8.14;56.38;95540.72;4889956;29;20053;-81
2021/03/13 08:27:41;;;;;;;1.25;0.50;;;;;;;8.19;55.35;95547.94;4892329;29;20061;-78
2021/03/13 08:30:22;;;;;;;0.70;0.15;;;;;;;8.22;54.10;95535.38;4891112;29;20048;-83
2021/03/13 08:33:00;;;;;;;3.28;0.70;;;;;;;8.28;55.22;95551.19;4891610;29;20427;-77
2021/03/13 08:35:42;;;;;;;1.58;0.60;;;;;;;8.31;54.95;95533.41;4890920;29;20049;-81
2021/03/13 08:38:09;;;;;;;2.78;0.32;;;;;;;8.36;55.17;95540.63;4892386;29;20053;-78
2021/03/13 08:40:43;;;;;;;0.68;0.40;;;;;;;8.39;54.40;95537.63;4895810;29;20049;-78
2021/03/13 08:43:41;;;;;;;2.05;0.22;;;;;;;8.45;53.95;95532.50;4891254;29;20512;-80
2021/03/13 08:46:40;;;;;;;0.50;0.20;;;;;;;8.48;54.63;95527.91;4860195;29;20146;-79
2021/03/13 08:49:08;;;;;;;0.73;0.35;;;;;;;8.55;54.51;95506.16;4893075;29;20468;-79
2021/03/13 08:51:35;;;;;;;1.15;0.73;;;;;;;8.63;54.45;95473.97;4893027;29;20066;-78
2021/03/13 08:54:02;;;;;;;0.90;0.30;;;;;;;8.72;54.79;95490.19;4891833;29;20523;-80
2021/03/13 08:56:40;;;;;;;0.57;0.13;;;;;;;8.81;53.14;95484.59;4892704;29;20547;-78
2021/03/13 08:59:16;;;;;;;2.13;0.30;;;;;;;8.92;53.08;95475.41;4894061;29;20056;-77
2021/03/13 09:01:44;;;;;;;2.22;0.57;;;;;;;9.02;53.54;95457.59;4894406;29;20049;-83
2021/03/13 09:04:12;;;;;;;1.65;0.40;;;;;;;9.10;52.42;95466.22;4890482;29;20079;-78
2021/03/13 09:06:43;;;;;;;1.13;0.25;;;;;;;9.24;52.65;95467.81;4887027;29;20595;-77
2021/03/13 09:09:19;;;;;;;0.65;0.20;;;;;;;9.39;51.12;95462.41;4888831;29;20194;-79
2021/03/13 09:11:55;;;;;;;0.77;0.38;;;;;;;9.60;50.12;95467.38;4885773;29;20543;-76
2021/03/13 09:14:21;;;;;;;0.50;0.28;;;;;;;9.85;50.26;95454.50;4885746;29;20045;-75
2021/03/13 09:16:48;;;;;;;1.25;0.30;;;;;;;10.08;49.69;95458.44;4886055;29;20049;-75
2021/03/13 09:19:15;;;;;;;1.33;0.40;;;;;;;10.16;48.94;95452.97;4886643;29;20235;-80
2021/03/13 09:21:45;;;;;;;0.68;0.32;;;;;;;10.20;48.75;95451.56;4887727;29;20075;-77
2021/03/13 09:24:15;;;;;;;1.85;0.25;;;;;;;10.20;47.70;95441.13;4888809;29;20136;-78
2021/03/13 09:26:42;;;;;;;1.25;0.28;;;;;;;10.17;48.40;95438.97;4887334;29;20144;-77
2021/03/13 09:29:09;;;;;;;1.30;0.43;;;;;;;10.16;48.57;95428.72;4887412;29;20424;-76
2021/03/13 09:31:35;;;;;;;0.50;0.22;;;;;;;10.16;48.23;95441.75;4886763;29;20064;-76
2021/03/13 09:34:13;;;;;;;0.95;0.40;;;;;;;10.16;47.38;95416.50;4887116;29;20056;-80
2021/03/13 09:36:49;;;;;;;0.95;0.17;;;;;;;10.16;47.66;95408.69;4887988;29;20108;-77
2021/03/13 09:39:24;;;;;;;2.05;0.20;;;;;;;10.16;46.92;95413.88;4887353;29;20536;-77
2021/03/13 09:42:05;;;;;;;2.67;0.32;;;;;;;10.14;46.33;95415.91;4887367;29;20049;-78
2021/03/13 09:44:34;;;;;;;1.98;0.35;;;;;;;10.14;47.44;95405.47;4887481;29;20097;-77
2021/03/13 09:47:01;;;;;;;1.80;0.20;;;;;;;10.16;47.47;95395.66;4887357;29;20059;-78
2021/03/13 09:49:28;;;;;;;1.33;0.30;;;;;;;10.22;46.63;95400.03;4887578;29;20494;-78
2021/03/13 09:51:56;;;;;;;1.45;0.52;;;;;;;10.24;46.63;95384.97;4890813;29;20088;-80
2021/03/13 09:54:22;;;;;;;0.90;0.30;;;;;;;10.27;46.65;95389.78;4891168;29;20053;-77
2021/03/13 09:56:49;;;;;;;2.75;0.93;;;;;;;10.28;46.67;95388.78;4891255;29;20509;-79
2021/03/13 09:59:20;;;;;;;0.50;0.20;;;;;;;10.30;45.20;95376.38;5302679;23;20040;-82
2021/03/13 10:01:51;;;;;;;1.95;0.20;;;;;;;10.31;45.60;95380.56;4988932;23;20041;-80
2021/03/13 10:04:30;;;;;;;0.75;0.20;;;;;;;10.35;46.14;95369.72;4890027;29;20048;-81
2021/03/13 10:07:02;;;;;;;1.05;0.43;;;;;;;10.38;45.96;95372.69;4905329;29;20039;-82
2021/03/13 10:09:33;;;;;;;0.38;0.20;;;;;;;10.44;45.92;95363.25;4904940;29;20034;-80
2021/03/13 10:12:06;;;;;;;2.15;0.45;;;;;;;10.55;45.19;95374.81;4904937;29;20041;-80
2021/03/13 10:14:40;;;;;;;2.13;0.20;;;;;;;10.70;44.96;95396.94;4904949;29;20057;-81
2021/03/13 10:17:50;;;;;;;1.88;0.20;;;;;;;11.01;44.67;95369.22;4902694;29;20041;-82
2021/03/13 10:20:25;;;;;;;3.72;0.20;;;;;;;11.26;44.44;95381.44;4904213;29;20101;-79
2021/03/13 10:23:40;;;;;;;0.30;0.20;;;;;;;11.48;42.45;95382.63;5215664;23;20044;-80
2021/03/13 10:26:23;;;;;;;0.63;0.40;;;;;;;11.55;43.42;95372.91;4905089;29;20037;-82
2021/03/13 10:28:50;;;;;;;1.60;0.70;;;;;;;11.59;43.64;95377.69;4899263;29;20121;-80
2021/03/13 10:31:19;;;;;;;0.28;0.28;;;;;;;11.55;42.91;95362.47;4898367;29;20064;-80
2021/03/13 10:34:04;;;;;;;0.55;0.28;;;;;;;11.51;42.61;95357.91;4902382;29;20055;-81
2021/03/13 10:36:43;;;;;;;1.17;0.30;;;;;;;11.45;42.46;95364.78;4903025;29;20143;-81
2021/03/13 10:39:13;;;;;;;0.10;0.10;;;;;;;11.36;43.14;95368.69;4901755;29;20073;-81
2021/03/13 10:41:53;;;;;;;2.63;0.25;;;;;;;11.29;42.91;95365.34;4904286;29;20052;-82
2021/03/13 10:44:24;;;;;;;0.40;0.20;;;;;;;11.21;43.43;95353.38;4889324;29;20060;-82
2021/03/13 10:46:54;;;;;;;1.23;0.30;;;;;;;11.17;43.70;95356.63;4903947;29;20045;-81
2021/03/13 10:49:26;;;;;;;1.10;0.22;;;;;;;11.13;43.14;95336.19;4898721;29;20061;-81
2021/03/13 10:51:54;;;;;;;1.07;0.30;;;;;;;11.08;43.23;95336.03;4897495;29;20060;-80
2021/03/13 10:54:24;;;;;;;0.20;0.15;;;;;;;11.04;43.71;95340.09;4897794;29;20787;-81
2021/03/13 10:56:55;;;;;;;1.80;0.40;;;;;;;11.04;43.91;95342.72;4900638;29;20067;-81
2021/03/13 10:59:34;;;;;;;0.60;0.30;;;;;;;11.03;43.56;95335.88;4902015;29;20107;-81
2021/03/13 11:02:04;;;;;;;2.22;0.47;;;;;;;10.99;43.37;95341.75;4903013;29;20041;-81
2021/03/13 11:04:32;;;;;;;0.20;0.20;;;;;;;10.93;43.41;95325.94;4901385;29;20120;-81
2021/03/13 11:07:00;;;;;;;1.02;0.38;;;;;;;10.92;43.89;95329.56;4898809;29;20126;-81
2021/03/13 11:09:29;;;;;;;0.25;0.20;;;;;;;10.93;44.30;95322.50;4903309;29;20083;-80
2021/03/13 11:12:03;;;;;;;2.38;0.50;;;;;;;10.91;43.67;95321.94;4904239;29;20044;-82
2021/03/13 11:14:35;;;;;;;0.47;0.15;;;;;;;10.86;43.83;95319.19;5024876;23;20045;-80
2021/03/13 11:17:04;;;;;;;1.15;0.38;;;;;;;10.84;43.70;95336.84;4899908;29;20048;-80
2021/03/13 11:19:35;;;;;;;0.82;0.30;;;;;;;10.80;43.90;95320.03;4877569;29;20130;-81
2021/03/13 11:22:14;;;;;;;0.60;0.43;;;;;;;10.78;43.70;95319.44;4869641;29;20085;-80
2021/03/13 11:24:45;;;;;;;0.40;0.20;;;;;;;10.75;44.02;95318.06;4860197;29;20050;-80
2021/03/13 11:27:15;;;;;;;0.68;0.25;;;;;;;10.67;43.78;95311.31;4874743;29;20069;-82
2021/03/13 11:29:42;;;;;;;0.45;0.20;;;;;;;10.67;43.86;95310.50;4876397;29;20125;-80
2021/03/13 11:32:13;;;;;;;0.77;0.32;;;;;;;10.63;43.78;95317.97;4871769;29;20429;-80
2021/03/13 11:46:19;;;;;;;2.05;0.40;;;;;;;10.56;44.88;95295.56;5222817;23;20403;-81
2021/03/13 13:12:34;;;;;;;4.55;0.40;;;;;;;9.87;50.97;95285.78;4867711;29;20046;-80
2021/03/13 13:15:01;;;;;;;0.38;0.20;;;;;;;9.83;50.62;95262.97;4873126;29;20053;-81
2021/03/13 13:17:31;;;;;;;0.20;0.20;;;;;;;9.82;50.65;95258.78;4874642;29;20480;-80
2021/03/13 13:23:26;;;;;;;0.63;0.35;;;;;;;9.77;51.14;95262.00;4815685;29;20071;-80
2021/03/13 13:25:53;;;;;;;0.68;0.20;;;;;;;9.75;51.65;95256.22;4863443;29;20080;-80
2021/03/13 13:28:23;;;;;;;0.25;0.10;;;;;;;9.74;51.20;95243.41;4864153;29;20501;-80
2021/03/13 13:30:54;;;;;;;0.85;0.30;;;;;;;9.73;51.31;95255.63;4875289;29;20108;-81
2021/03/13 13:33:23;;;;;;;0.20;0.20;;;;;;;9.75;51.47;95260.59;4897936;29;20081;-81
2021/03/13 13:35:52;;;;;;;0.73;0.15;;;;;;;9.75;51.98;95269.25;4900488;29;20064;-80
2021/03/13 13:38:20;;;;;;;1.45;0.52;;;;;;;9.73;51.98;95276.47;4886772;29;20722;-83
2021/03/13 13:40:49;;;;;;;0.93;0.38;;;;;;;9.70;52.69;95271.66;4893055;29;20053;-83
2021/03/13 13:43:20;;;;;;;0.38;0.17;;;;;;;9.66;53.13;95250.47;4890084;29;20144;-83
2021/03/13 13:45:48;;;;;;;0.32;0.25;;;;;;;9.66;54.00;95268.69;4899747;29;20049;-80
2021/03/13 13:48:16;;;;;;;0.38;0.30;;;;;;;9.64;54.42;95286.31;4900203;29;20060;-80
2021/03/13 13:50:44;;;;;;;0.70;0.17;;;;;;;9.61;54.98;95306.75;4899394;29;20076;-80
2021/03/13 13:53:12;;;;;;;0.50;0.17;;;;;;;9.57;54.92;95374.03;4892198;29;20053;-80
2021/03/13 13:55:42;;;;;;;0.73;0.30;;;;;;;9.43;56.74;95404.53;4889791;29;20504;-80
2021/03/13 13:58:10;;;;;;;1.63;0.25;;;;;;;8.92;58.00;95418.22;4883510;29;20080;-80